sensor_id;sensor_type;location;lat;lon;timestamp;P1;durP1;ratioP1;P2;durP2;ratioP2
54705;SDS011;40603;48.774;8.916;2022-10-23T00:00:20;8.20;;;4.28;;
54705;SDS011;40603;48.774;8.916;2022-10-23T00:02:50;9.43;;;4.25;;
54705;SDS011;40603;48.774;8.916;2022-10-23T00:05:17;8.00;;;4.72;;
54705;SDS011;40603;48.774;8.916;2022-10-23T00:07:42;16.17;;;4.47;;
54705;SDS011;40603;48.774;8.916;2022-10-23T00:10:08;9.60;;;4.93;;
54705;SDS011;40603;48.774;8.916;2022-10-23T00:12:34;12.48;;;4.68;;
54705;SDS011;40603;48.774;8.916;2022-10-23T00:14:59;9.70;;;4.50;;
54705;SDS011;40603;48.774;8.916;2022-10-23T00:17:24;8.25;;;4.07;;
54705;SDS011;40603;48.774;8.916;2022-10-23T00:19:50;9.45;;;4.03;;
54705;SDS011;40603;48.774;8.916;2022-10-23T00:22:15;9.75;;;3.90;;
54705;SDS011;40603;48.774;8.916;2022-10-23T00:24:40;7.80;;;4.22;;
54705;SDS011;40603;48.774;8.916;2022-10-23T00:27:06;10.50;;;4.40;;
54705;SDS011;40603;48.774;8.916;2022-10-23T00:29:31;10.15;;;4.47;;
54705;SDS011;40603;48.774;8.916;2022-10-23T00:31:56;7.72;;;3.85;;
54705;SDS011;40603;48.774;8.916;2022-10-23T00:34:22;11.15;;;5.13;;
54705;SDS011;40603;48.774;8.916;2022-10-23T00:36:47;7.38;;;4.40;;
54705;SDS011;40603;48.774;8.916;2022-10-23T00:39:12;10.30;;;4.13;;
54705;SDS011;40603;48.774;8.916;2022-10-23T00:41:38;9.77;;;3.90;;
54705;SDS011;40603;48.774;8.916;2022-10-23T00:46:33;12.95;;;4.30;;
54705;SDS011;40603;48.774;8.916;2022-10-23T00:48:59;6.15;;;3.72;;
54705;SDS011;40603;48.774;8.916;2022-10-23T00:51:25;9.02;;;4.07;;
54705;SDS011;40603;48.774;8.916;2022-10-23T00:53:54;8.63;;;3.70;;
54705;SDS011;40603;48.774;8.916;2022-10-23T00:56:21;9.40;;;3.90;;
54705;SDS011;40603;48.774;8.916;2022-10-23T00:58:47;5.75;;;3.33;;
54705;SDS011;40603;48.774;8.916;2022-10-23T01:01:14;9.70;;;3.63;;
54705;SDS011;40603;48.774;8.916;2022-10-23T01:03:42;7.13;;;3.95;;
54705;SDS011;40603;48.774;8.916;2022-10-23T01:06:09;10.40;;;4.40;;
54705;SDS011;40603;48.774;8.916;2022-10-23T01:14:13;6.07;;;3.60;;
54705;SDS011;40603;48.774;8.916;2022-10-23T01:20:06;6.55;;;4.40;;
54705;SDS011;40603;48.774;8.916;2022-10-23T01:22:27;7.22;;;3.50;;
54705;SDS011;40603;48.774;8.916;2022-10-23T01:25:06;10.43;;;3.60;;
54705;SDS011;40603;48.774;8.916;2022-10-23T01:27:59;10.20;;;3.97;;
54705;SDS011;40603;48.774;8.916;2022-10-23T01:30:26;7.60;;;3.42;;
54705;SDS011;40603;48.774;8.916;2022-10-23T01:32:52;8.20;;;4.53;;
54705;SDS011;40603;48.774;8.916;2022-10-23T01:37:54;5.38;;;3.40;;
54705;SDS011;40603;48.774;8.916;2022-10-23T01:40:28;13.00;;;3.80;;
54705;SDS011;40603;48.774;8.916;2022-10-23T01:42:58;5.18;;;3.60;;
54705;SDS011;40603;48.774;8.916;2022-10-23T01:45:34;8.68;;;3.83;;
54705;SDS011;40603;48.774;8.916;2022-10-23T01:48:03;6.85;;;3.95;;
54705;SDS011;40603;48.774;8.916;2022-10-23T01:50:29;16.73;;;4.07;;
54705;SDS011;40603;48.774;8.916;2022-10-23T01:52:55;9.45;;;3.83;;
54705;SDS011;40603;48.774;8.916;2022-10-23T01:55:21;7.45;;;3.92;;
54705;SDS011;40603;48.774;8.916;2022-10-23T01:57:47;6.85;;;3.60;;
54705;SDS011;40603;48.774;8.916;2022-10-23T02:00:15;6.30;;;3.28;;
54705;SDS011;40603;48.774;8.916;2022-10-23T02:02:42;13.80;;;3.35;;
54705;SDS011;40603;48.774;8.916;2022-10-23T02:05:11;6.35;;;3.35;;
54705;SDS011;40603;48.774;8.916;2022-10-23T02:07:41;5.80;;;3.10;;
54705;SDS011;40603;48.774;8.916;2022-10-23T02:10:07;9.93;;;3.53;;
54705;SDS011;40603;48.774;8.916;2022-10-23T02:15:18;12.98;;;3.55;;
54705;SDS011;40603;48.774;8.916;2022-10-23T02:17:50;4.82;;;2.95;;
54705;SDS011;40603;48.774;8.916;2022-10-23T02:20:26;8.18;;;3.92;;
54705;SDS011;40603;48.774;8.916;2022-10-23T02:23:00;5.35;;;3.25;;
54705;SDS011;40603;48.774;8.916;2022-10-23T02:25:30;9.38;;;3.88;;
54705;SDS011;40603;48.774;8.916;2022-10-23T02:27:59;10.70;;;3.67;;
54705;SDS011;40603;48.774;8.916;2022-10-23T02:32:53;8.10;;;3.30;;
54705;SDS011;40603;48.774;8.916;2022-10-23T02:35:20;9.80;;;3.50;;
54705;SDS011;40603;48.774;8.916;2022-10-23T02:37:51;9.63;;;3.70;;
54705;SDS011;40603;48.774;8.916;2022-10-23T02:42:44;6.20;;;3.60;;
54705;SDS011;40603;48.774;8.916;2022-10-23T02:45:18;7.03;;;3.55;;
54705;SDS011;40603;48.774;8.916;2022-10-23T02:48:36;3.58;;;2.80;;
54705;SDS011;40603;48.774;8.916;2022-10-23T02:50:44;8.35;;;3.55;;
54705;SDS011;40603;48.774;8.916;2022-10-23T02:53:21;7.13;;;3.25;;
54705;SDS011;40603;48.774;8.916;2022-10-23T02:58:40;11.18;;;3.47;;
54705;SDS011;40603;48.774;8.916;2022-10-23T03:01:13;5.82;;;2.88;;
54705;SDS011;40603;48.774;8.916;2022-10-23T03:03:52;6.25;;;3.25;;
54705;SDS011;40603;48.774;8.916;2022-10-23T03:06:20;8.05;;;3.28;;
54705;SDS011;40603;48.774;8.916;2022-10-23T03:08:53;11.30;;;3.20;;
54705;SDS011;40603;48.774;8.916;2022-10-23T03:11:22;4.43;;;3.00;;
54705;SDS011;40603;48.774;8.916;2022-10-23T03:13:47;5.95;;;3.08;;
54705;SDS011;40603;48.774;8.916;2022-10-23T03:16:13;10.05;;;3.47;;
54705;SDS011;40603;48.774;8.916;2022-10-23T03:18:38;5.30;;;3.65;;
54705;SDS011;40603;48.774;8.916;2022-10-23T03:21:03;7.82;;;3.40;;
54705;SDS011;40603;48.774;8.916;2022-10-23T03:23:28;8.48;;;3.53;;
54705;SDS011;40603;48.774;8.916;2022-10-23T03:25:54;7.07;;;2.97;;
54705;SDS011;40603;48.774;8.916;2022-10-23T03:28:20;5.28;;;2.90;;
54705;SDS011;40603;48.774;8.916;2022-10-23T03:30:46;6.07;;;3.45;;
54705;SDS011;40603;48.774;8.916;2022-10-23T03:33:11;7.18;;;3.33;;
54705;SDS011;40603;48.774;8.916;2022-10-23T03:35:36;10.73;;;4.10;;
54705;SDS011;40603;48.774;8.916;2022-10-23T03:38:01;8.30;;;3.17;;
54705;SDS011;40603;48.774;8.916;2022-10-23T03:40:27;5.63;;;3.15;;
54705;SDS011;40603;48.774;8.916;2022-10-23T03:42:52;6.30;;;3.40;;
54705;SDS011;40603;48.774;8.916;2022-10-23T03:45:18;7.47;;;3.35;;
54705;SDS011;40603;48.774;8.916;2022-10-23T03:47:43;6.00;;;3.08;;
54705;SDS011;40603;48.774;8.916;2022-10-23T03:50:09;5.50;;;3.20;;
54705;SDS011;40603;48.774;8.916;2022-10-23T03:52:35;7.68;;;2.97;;
54705;SDS011;40603;48.774;8.916;2022-10-23T03:55:00;6.60;;;3.20;;
54705;SDS011;40603;48.774;8.916;2022-10-23T03:57:26;9.45;;;3.10;;
54705;SDS011;40603;48.774;8.916;2022-10-23T03:59:51;9.15;;;3.00;;
54705;SDS011;40603;48.774;8.916;2022-10-23T04:02:17;7.35;;;3.08;;
54705;SDS011;40603;48.774;8.916;2022-10-23T04:04:42;9.30;;;3.40;;
54705;SDS011;40603;48.774;8.916;2022-10-23T04:07:07;6.38;;;3.53;;
54705;SDS011;40603;48.774;8.916;2022-10-23T04:09:33;7.43;;;3.38;;
54705;SDS011;40603;48.774;8.916;2022-10-23T04:11:58;6.70;;;3.13;;
54705;SDS011;40603;48.774;8.916;2022-10-23T04:14:24;11.38;;;3.58;;
54705;SDS011;40603;48.774;8.916;2022-10-23T04:16:49;6.78;;;3.10;;
54705;SDS011;40603;48.774;8.916;2022-10-23T04:19:15;7.93;;;3.20;;
54705;SDS011;40603;48.774;8.916;2022-10-23T04:21:41;5.03;;;3.22;;
54705;SDS011;40603;48.774;8.916;2022-10-23T04:24:06;12.82;;;3.40;;
54705;SDS011;40603;48.774;8.916;2022-10-23T04:26:32;6.72;;;3.22;;
54705;SDS011;40603;48.774;8.916;2022-10-23T04:28:57;6.97;;;3.33;;
54705;SDS011;40603;48.774;8.916;2022-10-23T04:31:22;6.53;;;2.88;;
54705;SDS011;40603;48.774;8.916;2022-10-23T04:33:48;8.38;;;3.65;;
54705;SDS011;40603;48.774;8.916;2022-10-23T04:36:13;6.93;;;3.70;;
54705;SDS011;40603;48.774;8.916;2022-10-23T04:38:38;6.70;;;3.47;;
54705;SDS011;40603;48.774;8.916;2022-10-23T04:41:04;6.50;;;3.40;;
54705;SDS011;40603;48.774;8.916;2022-10-23T04:43:29;4.40;;;3.30;;
54705;SDS011;40603;48.774;8.916;2022-10-23T04:45:54;7.60;;;3.80;;
54705;SDS011;40603;48.774;8.916;2022-10-23T04:48:20;6.50;;;3.15;;
54705;SDS011;40603;48.774;8.916;2022-10-23T04:50:56;4.32;;;2.65;;
54705;SDS011;40603;48.774;8.916;2022-10-23T04:53:25;4.55;;;2.83;;
54705;SDS011;40603;48.774;8.916;2022-10-23T04:55:53;10.25;;;3.03;;
54705;SDS011;40603;48.774;8.916;2022-10-23T04:58:19;6.22;;;4.15;;
54705;SDS011;40603;48.774;8.916;2022-10-23T05:00:45;3.50;;;2.80;;
54705;SDS011;40603;48.774;8.916;2022-10-23T05:03:10;6.90;;;2.95;;
54705;SDS011;40603;48.774;8.916;2022-10-23T05:05:36;8.80;;;3.30;;
54705;SDS011;40603;48.774;8.916;2022-10-23T05:08:01;7.43;;;3.35;;
54705;SDS011;40603;48.774;8.916;2022-10-23T05:10:26;9.95;;;3.38;;
54705;SDS011;40603;48.774;8.916;2022-10-23T05:12:52;10.88;;;3.20;;
54705;SDS011;40603;48.774;8.916;2022-10-23T05:15:17;4.88;;;2.75;;
54705;SDS011;40603;48.774;8.916;2022-10-23T05:17:42;6.10;;;2.92;;
54705;SDS011;40603;48.774;8.916;2022-10-23T05:20:13;5.45;;;2.97;;
54705;SDS011;40603;48.774;8.916;2022-10-23T05:22:42;7.03;;;3.58;;
54705;SDS011;40603;48.774;8.916;2022-10-23T05:25:09;11.10;;;4.57;;
54705;SDS011;40603;48.774;8.916;2022-10-23T05:27:34;5.65;;;3.45;;
54705;SDS011;40603;48.774;8.916;2022-10-23T05:29:59;5.00;;;2.97;;
54705;SDS011;40603;48.774;8.916;2022-10-23T05:32:26;6.60;;;3.20;;
54705;SDS011;40603;48.774;8.916;2022-10-23T05:34:53;11.15;;;3.10;;
54705;SDS011;40603;48.774;8.916;2022-10-23T05:37:19;7.80;;;2.97;;
54705;SDS011;40603;48.774;8.916;2022-10-23T05:39:44;6.18;;;3.05;;
54705;SDS011;40603;48.774;8.916;2022-10-23T05:42:10;4.80;;;2.88;;
54705;SDS011;40603;48.774;8.916;2022-10-23T05:44:35;6.70;;;3.35;;
54705;SDS011;40603;48.774;8.916;2022-10-23T05:47:01;5.57;;;2.88;;
54705;SDS011;40603;48.774;8.916;2022-10-23T05:49:26;8.02;;;2.63;;
54705;SDS011;40603;48.774;8.916;2022-10-23T05:51:51;4.65;;;2.97;;
54705;SDS011;40603;48.774;8.916;2022-10-23T05:54:17;4.70;;;2.80;;
54705;SDS011;40603;48.774;8.916;2022-10-23T05:56:42;5.72;;;3.00;;
54705;SDS011;40603;48.774;8.916;2022-10-23T05:59:08;6.57;;;3.35;;
54705;SDS011;40603;48.774;8.916;2022-10-23T06:01:34;4.70;;;2.95;;
54705;SDS011;40603;48.774;8.916;2022-10-23T06:03:59;10.63;;;3.03;;
54705;SDS011;40603;48.774;8.916;2022-10-23T06:06:25;4.28;;;3.10;;
54705;SDS011;40603;48.774;8.916;2022-10-23T06:08:50;5.68;;;3.28;;
54705;SDS011;40603;48.774;8.916;2022-10-23T06:11:16;12.50;;;3.30;;
54705;SDS011;40603;48.774;8.916;2022-10-23T06:13:42;5.65;;;3.35;;
54705;SDS011;40603;48.774;8.916;2022-10-23T06:16:12;9.07;;;3.00;;
54705;SDS011;40603;48.774;8.916;2022-10-23T06:18:37;4.80;;;3.33;;
54705;SDS011;40603;48.774;8.916;2022-10-23T06:21:02;4.85;;;3.38;;
54705;SDS011;40603;48.774;8.916;2022-10-23T06:23:31;4.72;;;2.80;;
54705;SDS011;40603;48.774;8.916;2022-10-23T06:25:58;10.93;;;3.00;;
54705;SDS011;40603;48.774;8.916;2022-10-23T06:28:23;5.55;;;3.00;;
54705;SDS011;40603;48.774;8.916;2022-10-23T06:30:49;6.30;;;3.10;;
54705;SDS011;40603;48.774;8.916;2022-10-23T06:33:14;8.50;;;3.50;;
54705;SDS011;40603;48.774;8.916;2022-10-23T06:35:39;5.47;;;3.28;;
54705;SDS011;40603;48.774;8.916;2022-10-23T06:38:04;11.95;;;3.47;;
54705;SDS011;40603;48.774;8.916;2022-10-23T06:40:30;5.53;;;3.15;;
54705;SDS011;40603;48.774;8.916;2022-10-23T06:42:55;4.20;;;2.90;;
54705;SDS011;40603;48.774;8.916;2022-10-23T06:45:21;4.47;;;3.03;;
54705;SDS011;40603;48.774;8.916;2022-10-23T06:47:48;7.70;;;2.50;;
54705;SDS011;40603;48.774;8.916;2022-10-23T06:50:14;4.43;;;2.95;;
54705;SDS011;40603;48.774;8.916;2022-10-23T06:52:40;5.47;;;2.50;;
54705;SDS011;40603;48.774;8.916;2022-10-23T06:55:05;4.10;;;2.95;;
54705;SDS011;40603;48.774;8.916;2022-10-23T06:57:32;3.63;;;2.50;;
54705;SDS011;40603;48.774;8.916;2022-10-23T06:59:57;6.30;;;2.65;;
54705;SDS011;40603;48.774;8.916;2022-10-23T07:02:22;4.88;;;2.25;;
54705;SDS011;40603;48.774;8.916;2022-10-23T07:04:47;8.07;;;2.80;;
54705;SDS011;40603;48.774;8.916;2022-10-23T07:07:13;4.35;;;2.60;;
54705;SDS011;40603;48.774;8.916;2022-10-23T07:09:38;2.97;;;2.58;;
54705;SDS011;40603;48.774;8.916;2022-10-23T07:12:03;4.55;;;2.40;;
54705;SDS011;40603;48.774;8.916;2022-10-23T07:14:29;4.93;;;2.40;;
54705;SDS011;40603;48.774;8.916;2022-10-23T07:16:56;3.90;;;2.63;;
54705;SDS011;40603;48.774;8.916;2022-10-23T07:19:21;4.13;;;2.63;;
54705;SDS011;40603;48.774;8.916;2022-10-23T07:21:46;4.70;;;2.85;;
54705;SDS011;40603;48.774;8.916;2022-10-23T07:24:12;5.20;;;2.47;;
54705;SDS011;40603;48.774;8.916;2022-10-23T07:26:37;5.00;;;2.35;;
54705;SDS011;40603;48.774;8.916;2022-10-23T07:29:03;4.75;;;2.60;;
54705;SDS011;40603;48.774;8.916;2022-10-23T07:31:28;5.40;;;2.88;;
54705;SDS011;40603;48.774;8.916;2022-10-23T07:33:53;5.10;;;3.08;;
54705;SDS011;40603;48.774;8.916;2022-10-23T07:36:19;3.28;;;2.88;;
54705;SDS011;40603;48.774;8.916;2022-10-23T07:38:44;4.00;;;2.90;;
54705;SDS011;40603;48.774;8.916;2022-10-23T07:41:10;6.40;;;2.88;;
54705;SDS011;40603;48.774;8.916;2022-10-23T07:43:36;5.72;;;3.38;;
54705;SDS011;40603;48.774;8.916;2022-10-23T07:46:01;9.38;;;2.65;;
54705;SDS011;40603;48.774;8.916;2022-10-23T07:48:27;6.57;;;2.70;;
54705;SDS011;40603;48.774;8.916;2022-10-23T07:50:53;5.82;;;2.60;;
54705;SDS011;40603;48.774;8.916;2022-10-23T07:53:22;4.85;;;2.55;;
54705;SDS011;40603;48.774;8.916;2022-10-23T07:55:55;5.25;;;2.58;;
54705;SDS011;40603;48.774;8.916;2022-10-23T07:58:22;4.00;;;2.40;;
54705;SDS011;40603;48.774;8.916;2022-10-23T08:00:53;2.60;;;2.03;;
54705;SDS011;40603;48.774;8.916;2022-10-23T08:03:23;8.05;;;2.38;;
54705;SDS011;40603;48.774;8.916;2022-10-23T08:05:52;3.55;;;2.08;;
54705;SDS011;40603;48.774;8.916;2022-10-23T08:08:17;4.05;;;2.75;;
54705;SDS011;40603;48.774;8.916;2022-10-23T08:10:44;5.40;;;2.63;;
54705;SDS011;40603;48.774;8.916;2022-10-23T08:13:10;4.22;;;2.50;;
54705;SDS011;40603;48.774;8.916;2022-10-23T08:15:37;3.60;;;2.60;;
54705;SDS011;40603;48.774;8.916;2022-10-23T08:18:02;4.07;;;2.58;;
54705;SDS011;40603;48.774;8.916;2022-10-23T08:20:27;4.22;;;2.13;;
54705;SDS011;40603;48.774;8.916;2022-10-23T08:22:53;2.50;;;1.95;;
54705;SDS011;40603;48.774;8.916;2022-10-23T08:25:19;3.28;;;2.05;;
54705;SDS011;40603;48.774;8.916;2022-10-23T08:27:44;2.15;;;1.67;;
54705;SDS011;40603;48.774;8.916;2022-10-23T08:30:10;2.35;;;1.80;;
54705;SDS011;40603;48.774;8.916;2022-10-23T08:32:35;4.95;;;1.88;;
54705;SDS011;40603;48.774;8.916;2022-10-23T08:35:00;3.00;;;1.98;;
54705;SDS011;40603;48.774;8.916;2022-10-23T08:37:26;3.88;;;2.33;;
54705;SDS011;40603;48.774;8.916;2022-10-23T08:39:51;2.33;;;1.65;;
54705;SDS011;40603;48.774;8.916;2022-10-23T08:42:21;3.08;;;1.65;;
54705;SDS011;40603;48.774;8.916;2022-10-23T08:44:54;2.53;;;1.67;;
54705;SDS011;40603;48.774;8.916;2022-10-23T08:47:28;6.15;;;1.85;;
54705;SDS011;40603;48.774;8.916;2022-10-23T08:49:56;3.22;;;1.10;;
54705;SDS011;40603;48.774;8.916;2022-10-23T08:52:29;3.90;;;1.10;;
54705;SDS011;40603;48.774;8.916;2022-10-23T08:57:41;2.95;;;0.93;;
54705;SDS011;40603;48.774;8.916;2022-10-23T09:00:12;0.85;;;0.85;;
54705;SDS011;40603;48.774;8.916;2022-10-23T09:02:40;2.90;;;0.95;;
54705;SDS011;40603;48.774;8.916;2022-10-23T09:05:15;0.93;;;0.93;;
54705;SDS011;40603;48.774;8.916;2022-10-23T09:08:14;3.25;;;1.00;;
54705;SDS011;40603;48.774;8.916;2022-10-23T09:10:59;8.75;;;0.98;;
54705;SDS011;40603;48.774;8.916;2022-10-23T09:13:35;5.05;;;0.80;;
54705;SDS011;40603;48.774;8.916;2022-10-23T09:19:25;0.95;;;0.80;;
54705;SDS011;40603;48.774;8.916;2022-10-23T09:21:52;1.45;;;0.95;;
54705;SDS011;40603;48.774;8.916;2022-10-23T09:24:19;2.67;;;0.70;;
54705;SDS011;40603;48.774;8.916;2022-10-23T09:26:46;2.10;;;0.70;;
54705;SDS011;40603;48.774;8.916;2022-10-23T09:29:17;0.75;;;0.50;;
54705;SDS011;40603;48.774;8.916;2022-10-23T09:31:52;0.75;;;0.73;;
54705;SDS011;40603;48.774;8.916;2022-10-23T09:34:26;1.13;;;0.60;;
54705;SDS011;40603;48.774;8.916;2022-10-23T09:36:54;3.20;;;0.50;;
54705;SDS011;40603;48.774;8.916;2022-10-23T09:41:52;1.58;;;0.50;;
54705;SDS011;40603;48.774;8.916;2022-10-23T09:44:22;0.80;;;0.65;;
54705;SDS011;40603;48.774;8.916;2022-10-23T09:46:52;2.60;;;0.70;;
54705;SDS011;40603;48.774;8.916;2022-10-23T09:51:53;1.73;;;0.90;;
54705;SDS011;40603;48.774;8.916;2022-10-23T09:54:21;1.02;;;0.45;;
54705;SDS011;40603;48.774;8.916;2022-10-23T09:56:50;0.70;;;0.55;;
54705;SDS011;40603;48.774;8.916;2022-10-23T09:59:20;10.95;;;1.00;;
54705;SDS011;40603;48.774;8.916;2022-10-23T10:01:49;1.33;;;0.52;;
54705;SDS011;40603;48.774;8.916;2022-10-23T10:04:16;2.65;;;0.90;;
54705;SDS011;40603;48.774;8.916;2022-10-23T10:06:42;2.78;;;0.50;;
54705;SDS011;40603;48.774;8.916;2022-10-23T10:09:11;2.00;;;0.47;;
54705;SDS011;40603;48.774;8.916;2022-10-23T10:11:43;2.70;;;0.90;;
54705;SDS011;40603;48.774;8.916;2022-10-23T10:17:16;4.25;;;0.80;;
54705;SDS011;40603;48.774;8.916;2022-10-23T10:19:54;0.80;;;0.60;;
54705;SDS011;40603;48.774;8.916;2022-10-23T10:22:38;1.27;;;0.47;;
54705;SDS011;40603;48.774;8.916;2022-10-23T10:25:17;2.83;;;1.02;;
54705;SDS011;40603;48.774;8.916;2022-10-23T10:27:56;2.47;;;0.47;;
54705;SDS011;40603;48.774;8.916;2022-10-23T10:30:32;2.13;;;0.65;;
54705;SDS011;40603;48.774;8.916;2022-10-23T10:35:52;2.17;;;0.70;;
54705;SDS011;40603;48.774;8.916;2022-10-23T10:38:24;1.42;;;0.70;;
54705;SDS011;40603;48.774;8.916;2022-10-23T10:54:48;3.25;;;0.82;;
54705;SDS011;40603;48.774;8.916;2022-10-23T10:57:38;1.40;;;0.70;;
54705;SDS011;40603;48.774;8.916;2022-10-23T11:00:13;0.32;;;0.25;;
54705;SDS011;40603;48.774;8.916;2022-10-23T11:05:17;0.70;;;0.67;;
54705;SDS011;40603;48.774;8.916;2022-10-23T11:07:58;1.73;;;0.40;;
54705;SDS011;40603;48.774;8.916;2022-10-23T11:10:25;0.55;;;0.55;;
54705;SDS011;40603;48.774;8.916;2022-10-23T11:12:51;0.80;;;0.45;;
54705;SDS011;40603;48.774;8.916;2022-10-23T11:15:18;1.02;;;0.45;;
54705;SDS011;40603;48.774;8.916;2022-10-23T11:17:47;0.95;;;0.60;;
54705;SDS011;40603;48.774;8.916;2022-10-23T11:25:54;0.75;;;0.73;;
54705;SDS011;40603;48.774;8.916;2022-10-23T11:31:14;2.13;;;0.55;;
54705;SDS011;40603;48.774;8.916;2022-10-23T11:39:21;3.33;;;0.60;;
54705;SDS011;40603;48.774;8.916;2022-10-23T11:41:50;1.35;;;0.50;;
54705;SDS011;40603;48.774;8.916;2022-10-23T11:44:45;2.33;;;0.57;;
54705;SDS011;40603;48.774;8.916;2022-10-23T11:52:55;4.90;;;0.77;;
54705;SDS011;40603;48.774;8.916;2022-10-23T11:55:31;2.15;;;0.60;;
54705;SDS011;40603;48.774;8.916;2022-10-23T12:00:28;3.67;;;0.70;;
54705;SDS011;40603;48.774;8.916;2022-10-23T12:02:55;1.85;;;0.70;;
54705;SDS011;40603;48.774;8.916;2022-10-23T12:05:31;2.15;;;0.50;;
54705;SDS011;40603;48.774;8.916;2022-10-23T12:08:03;0.95;;;0.50;;
54705;SDS011;40603;48.774;8.916;2022-10-23T12:10:34;0.40;;;0.40;;
54705;SDS011;40603;48.774;8.916;2022-10-23T12:15:28;0.60;;;0.40;;
54705;SDS011;40603;48.774;8.916;2022-10-23T12:17:55;0.80;;;0.70;;
54705;SDS011;40603;48.774;8.916;2022-10-23T12:20:39;0.80;;;0.70;;
54705;SDS011;40603;48.774;8.916;2022-10-23T12:28:31;1.40;;;0.63;;
54705;SDS011;40603;48.774;8.916;2022-10-23T12:31:04;2.40;;;0.70;;
54705;SDS011;40603;48.774;8.916;2022-10-23T12:38:58;0.60;;;0.50;;
54705;SDS011;40603;48.774;8.916;2022-10-23T12:41:24;0.55;;;0.55;;
54705;SDS011;40603;48.774;8.916;2022-10-23T12:43:58;1.75;;;0.60;;
54705;SDS011;40603;48.774;8.916;2022-10-23T12:46:35;0.93;;;0.90;;
54705;SDS011;40603;48.774;8.916;2022-10-23T12:49:12;2.78;;;0.60;;
54705;SDS011;40603;48.774;8.916;2022-10-23T12:51:38;1.88;;;0.52;;
54705;SDS011;40603;48.774;8.916;2022-10-23T12:54:12;3.20;;;0.60;;
54705;SDS011;40603;48.774;8.916;2022-10-23T12:56:39;3.75;;;0.60;;
54705;SDS011;40603;48.774;8.916;2022-10-23T12:59:09;0.85;;;0.73;;
54705;SDS011;40603;48.774;8.916;2022-10-23T13:01:41;0.85;;;0.60;;
54705;SDS011;40603;48.774;8.916;2022-10-23T13:04:10;2.30;;;0.70;;
54705;SDS011;40603;48.774;8.916;2022-10-23T13:06:47;2.42;;;0.82;;
54705;SDS011;40603;48.774;8.916;2022-10-23T13:09:23;0.77;;;0.43;;
54705;SDS011;40603;48.774;8.916;2022-10-23T13:11:51;3.63;;;0.82;;
54705;SDS011;40603;48.774;8.916;2022-10-23T13:17:02;0.77;;;0.55;;
54705;SDS011;40603;48.774;8.916;2022-10-23T13:19:29;1.13;;;0.70;;
54705;SDS011;40603;48.774;8.916;2022-10-23T13:21:55;1.10;;;0.70;;
54705;SDS011;40603;48.774;8.916;2022-10-23T13:24:21;1.48;;;0.70;;
54705;SDS011;40603;48.774;8.916;2022-10-23T13:26:47;2.83;;;0.70;;
54705;SDS011;40603;48.774;8.916;2022-10-23T13:29:23;0.85;;;0.85;;
54705;SDS011;40603;48.774;8.916;2022-10-23T13:31:51;1.33;;;0.80;;
54705;SDS011;40603;48.774;8.916;2022-10-23T13:34:18;1.80;;;0.90;;
54705;SDS011;40603;48.774;8.916;2022-10-23T13:36:51;2.50;;;0.98;;
54705;SDS011;40603;48.774;8.916;2022-10-23T13:39:24;3.20;;;0.90;;
54705;SDS011;40603;48.774;8.916;2022-10-23T13:41:50;2.00;;;0.70;;
54705;SDS011;40603;48.774;8.916;2022-10-23T13:44:17;0.80;;;0.80;;
54705;SDS011;40603;48.774;8.916;2022-10-23T13:46:44;1.17;;;0.90;;
54705;SDS011;40603;48.774;8.916;2022-10-23T13:49:09;1.52;;;0.80;;
54705;SDS011;40603;48.774;8.916;2022-10-23T13:51:48;1.10;;;0.80;;
54705;SDS011;40603;48.774;8.916;2022-10-23T13:54:17;1.38;;;0.73;;
54705;SDS011;40603;48.774;8.916;2022-10-23T13:56:44;1.10;;;0.60;;
54705;SDS011;40603;48.774;8.916;2022-10-23T13:59:10;2.80;;;0.93;;
54705;SDS011;40603;48.774;8.916;2022-10-23T14:01:35;2.50;;;0.90;;
54705;SDS011;40603;48.774;8.916;2022-10-23T14:04:01;3.50;;;1.50;;
54705;SDS011;40603;48.774;8.916;2022-10-23T14:06:28;1.63;;;0.90;;
54705;SDS011;40603;48.774;8.916;2022-10-23T14:08:54;2.03;;;0.70;;
54705;SDS011;40603;48.774;8.916;2022-10-23T14:11:19;1.35;;;0.95;;
54705;SDS011;40603;48.774;8.916;2022-10-23T14:13:45;2.38;;;0.90;;
54705;SDS011;40603;48.774;8.916;2022-10-23T14:16:11;0.90;;;0.80;;
54705;SDS011;40603;48.774;8.916;2022-10-23T14:18:38;1.75;;;0.90;;
54705;SDS011;40603;48.774;8.916;2022-10-23T14:21:05;2.40;;;0.93;;
54705;SDS011;40603;48.774;8.916;2022-10-23T14:23:31;2.47;;;0.95;;
54705;SDS011;40603;48.774;8.916;2022-10-23T14:26:03;1.95;;;0.85;;
54705;SDS011;40603;48.774;8.916;2022-10-23T14:28:29;1.25;;;1.08;;
54705;SDS011;40603;48.774;8.916;2022-10-23T14:30:55;3.30;;;0.90;;
54705;SDS011;40603;48.774;8.916;2022-10-23T14:33:20;1.98;;;1.00;;
54705;SDS011;40603;48.774;8.916;2022-10-23T14:35:48;2.75;;;1.00;;
54705;SDS011;40603;48.774;8.916;2022-10-23T14:38:13;5.38;;;1.00;;
54705;SDS011;40603;48.774;8.916;2022-10-23T14:40:39;1.40;;;0.80;;
54705;SDS011;40603;48.774;8.916;2022-10-23T14:43:04;0.70;;;0.70;;
54705;SDS011;40603;48.774;8.916;2022-10-23T14:45:30;2.63;;;0.90;;
54705;SDS011;40603;48.774;8.916;2022-10-23T14:47:55;4.63;;;1.33;;
54705;SDS011;40603;48.774;8.916;2022-10-23T14:50:20;1.83;;;0.90;;
54705;SDS011;40603;48.774;8.916;2022-10-23T14:52:46;1.63;;;0.95;;
54705;SDS011;40603;48.774;8.916;2022-10-23T14:55:11;1.02;;;0.70;;
54705;SDS011;40603;48.774;8.916;2022-10-23T14:57:36;0.80;;;0.77;;
54705;SDS011;40603;48.774;8.916;2022-10-23T15:00:03;2.88;;;0.70;;
54705;SDS011;40603;48.774;8.916;2022-10-23T15:02:29;0.75;;;0.68;;
54705;SDS011;40603;48.774;8.916;2022-10-23T15:04:54;3.58;;;1.00;;
54705;SDS011;40603;48.774;8.916;2022-10-23T15:07:20;1.83;;;0.77;;
54705;SDS011;40603;48.774;8.916;2022-10-23T15:09:45;1.50;;;0.90;;
54705;SDS011;40603;48.774;8.916;2022-10-23T15:12:10;3.80;;;1.00;;
54705;SDS011;40603;48.774;8.916;2022-10-23T15:14:35;3.00;;;1.10;;
54705;SDS011;40603;48.774;8.916;2022-10-23T15:17:01;3.63;;;0.90;;
54705;SDS011;40603;48.774;8.916;2022-10-23T15:19:26;1.30;;;0.68;;
54705;SDS011;40603;48.774;8.916;2022-10-23T15:21:52;1.60;;;0.80;;
54705;SDS011;40603;48.774;8.916;2022-10-23T15:24:17;5.57;;;0.90;;
54705;SDS011;40603;48.774;8.916;2022-10-23T15:26:44;0.80;;;0.70;;
54705;SDS011;40603;48.774;8.916;2022-10-23T15:29:10;3.38;;;0.93;;
54705;SDS011;40603;48.774;8.916;2022-10-23T15:34:40;1.25;;;1.00;;
54705;SDS011;40603;48.774;8.916;2022-10-23T15:36:58;2.15;;;1.10;;
54705;SDS011;40603;48.774;8.916;2022-10-23T15:39:25;2.95;;;0.73;;
54705;SDS011;40603;48.774;8.916;2022-10-23T15:41:55;2.60;;;1.13;;
54705;SDS011;40603;48.774;8.916;2022-10-23T15:44:22;2.47;;;0.90;;
54705;SDS011;40603;48.774;8.916;2022-10-23T15:46:48;3.83;;;0.90;;
54705;SDS011;40603;48.774;8.916;2022-10-23T15:49:14;1.85;;;1.20;;
54705;SDS011;40603;48.774;8.916;2022-10-23T15:51:40;2.13;;;0.88;;
54705;SDS011;40603;48.774;8.916;2022-10-23T15:54:06;0.80;;;0.80;;
54705;SDS011;40603;48.774;8.916;2022-10-23T15:56:33;1.60;;;0.80;;
54705;SDS011;40603;48.774;8.916;2022-10-23T15:58:59;6.25;;;0.93;;
54705;SDS011;40603;48.774;8.916;2022-10-23T16:01:24;0.88;;;0.73;;
54705;SDS011;40603;48.774;8.916;2022-10-23T16:03:50;1.40;;;0.77;;
54705;SDS011;40603;48.774;8.916;2022-10-23T16:06:16;4.88;;;2.90;;
54705;SDS011;40603;48.774;8.916;2022-10-23T16:08:42;10.60;;;3.75;;
54705;SDS011;40603;48.774;8.916;2022-10-23T16:11:12;3.42;;;2.28;;
54705;SDS011;40603;48.774;8.916;2022-10-23T16:13:39;5.82;;;2.28;;
54705;SDS011;40603;48.774;8.916;2022-10-23T16:16:04;2.17;;;1.25;;
54705;SDS011;40603;48.774;8.916;2022-10-23T16:18:30;2.80;;;1.08;;
54705;SDS011;40603;48.774;8.916;2022-10-23T16:20:55;4.63;;;1.10;;
54705;SDS011;40603;48.774;8.916;2022-10-23T16:23:21;3.10;;;1.25;;
54705;SDS011;40603;48.774;8.916;2022-10-23T16:25:46;6.38;;;1.30;;
54705;SDS011;40603;48.774;8.916;2022-10-23T16:28:11;2.03;;;1.05;;